createdAt,value
2017-04-24T00:00:03.200Z,18.64
2017-04-24T00:00:22.040Z,18.67
2017-04-24T00:00:42.010Z,18.58
2017-04-24T00:01:02.004Z,18.61
2017-04-24T00:01:21.414Z,18.68
2017-04-24T00:01:40.805Z,18.62
2017-04-24T00:02:01.056Z,18.61
2017-04-24T00:02:21.049Z,18.71
2017-04-24T00:02:41.010Z,18.67
2017-04-24T00:03:00.999Z,18.65
2017-04-24T00:03:20.398Z,18.65
2017-04-24T00:03:40.366Z,18.74
2017-04-24T00:04:00.342Z,18.68
2017-04-24T00:04:19.168Z,18.74
2017-04-24T00:04:39.179Z,18.68
2017-04-24T00:04:59.129Z,18.71
2017-04-24T00:05:19.117Z,18.69
2017-04-24T00:05:39.059Z,18.74
2017-04-24T00:05:59.080Z,18.83
2017-04-24T00:06:19.039Z,18.79
2017-04-24T00:06:39.000Z,18.77
2017-04-24T00:06:58.399Z,18.64
2017-04-24T00:07:18.374Z,18.68
2017-04-24T00:07:38.363Z,18.74
2017-04-24T00:07:58.351Z,18.65
2017-04-24T00:08:18.375Z,18.64
2017-04-24T00:08:38.396Z,18.65
2017-04-24T00:08:58.395Z,18.61
2017-04-24T00:09:17.823Z,18.62
2017-04-24T00:09:36.673Z,18.58
2017-04-24T00:09:56.677Z,18.55
2017-04-24T00:10:16.056Z,18.5
2017-04-24T00:10:36.036Z,18.53
2017-04-24T00:10:56.055Z,18.49
2017-04-24T00:11:14.950Z,18.47
2017-04-24T00:11:34.885Z,18.47
2017-04-24T00:11:54.862Z,18.5
2017-04-24T00:12:15.368Z,18.46
2017-04-24T00:12:35.333Z,18.39
2017-04-24T00:12:55.334Z,18.42
2017-04-24T00:13:15.310Z,18.4
2017-04-24T00:13:35.313Z,18.37
2017-04-24T00:13:55.307Z,18.37
2017-04-24T00:14:14.156Z,18.37
2017-04-24T00:14:33.546Z,18.42
2017-04-24T00:14:53.513Z,18.42
2017-04-24T00:15:13.505Z,18.42
2017-04-24T00:15:33.452Z,18.46
2017-04-24T00:15:53.459Z,18.47
2017-04-24T00:16:12.854Z,18.4
2017-04-24T00:16:32.872Z,18.5
2017-04-24T00:16:52.805Z,18.4
2017-04-24T00:17:12.798Z,18.46
2017-04-24T00:17:32.824Z,18.46
2017-04-24T00:17:52.798Z,18.62
2017-04-24T00:18:12.732Z,18.47
2017-04-24T00:18:32.181Z,18.52
2017-04-24T00:18:52.163Z,18.52
2017-04-24T00:19:12.150Z,18.58
2017-04-24T00:19:32.152Z,18.71
2017-04-24T00:19:51.624Z,18.58
2017-04-24T00:20:11.110Z,18.58
2017-04-24T00:20:31.089Z,18.62
2017-04-24T00:20:51.025Z,18.61
2017-04-24T00:21:11.009Z,18.59
2017-04-24T00:21:30.460Z,18.59
2017-04-24T00:21:50.443Z,18.59
2017-04-24T00:22:09.866Z,18.52
2017-04-24T00:22:29.864Z,18.58
2017-04-24T00:22:49.855Z,18.58
2017-04-24T00:23:09.819Z,18.49
2017-04-24T00:23:29.813Z,18.58
2017-04-24T00:23:49.226Z,18.46
2017-04-24T00:24:09.228Z,18.44
2017-04-24T00:24:28.683Z,18.47
2017-04-24T00:24:48.705Z,18.5
2017-04-24T00:25:08.727Z,18.46
2017-04-24T00:25:28.517Z,18.46
2017-04-24T00:25:48.483Z,18.52
2017-04-24T00:26:08.495Z,18.52
2017-04-24T00:26:28.458Z,18.59
2017-04-24T00:26:48.438Z,18.5
2017-04-24T00:27:08.390Z,18.44
2017-04-24T00:27:28.393Z,18.61
2017-04-24T00:27:48.353Z,18.52
2017-04-24T00:28:08.341Z,18.59
2017-04-24T00:28:28.350Z,18.5
2017-04-24T00:28:48.315Z,18.43
2017-04-24T00:29:08.335Z,18.49
2017-04-24T00:29:28.331Z,18.5
2017-04-24T00:29:48.322Z,18.5
2017-04-24T00:30:07.783Z,18.49
2017-04-24T00:30:27.764Z,18.44
2017-04-24T00:30:47.772Z,18.46
2017-04-24T00:31:07.739Z,18.5
2017-04-24T00:31:27.694Z,18.4
2017-04-24T00:31:47.692Z,18.43
2017-04-24T00:32:07.704Z,18.31
2017-04-24T00:32:26.572Z,18.34
2017-04-24T00:32:46.562Z,18.32
2017-04-24T00:33:06.507Z,18.42
2017-04-24T00:33:25.388Z,18.29
2017-04-24T00:33:44.865Z,18.28
2017-04-24T00:34:04.898Z,18.35
2017-04-24T00:34:24.933Z,18.25
2017-04-24T00:34:45.109Z,18.39
2017-04-24T00:35:18.481Z,18.34
2017-04-24T00:35:38.629Z,18.25
2017-04-24T00:35:58.804Z,18.21
2017-04-24T00:36:18.421Z,18.22
2017-04-24T00:36:38.797Z,18.28
2017-04-24T00:36:58.964Z,18.22
2017-04-24T00:37:18.450Z,18.32
2017-04-24T00:37:38.444Z,18.28
2017-04-24T00:37:58.440Z,18.25
2017-04-24T00:38:17.873Z,18.24
2017-04-24T00:38:37.327Z,18.25
2017-04-24T00:38:57.379Z,18.27
2017-04-24T00:39:17.440Z,18.21
2017-04-24T00:39:37.501Z,18.25
2017-04-24T00:39:57.554Z,18.31
2017-04-24T00:40:17.533Z,18.27
2017-04-24T00:40:36.967Z,18.24
2017-04-24T00:40:56.996Z,18.27
2017-04-24T00:41:17.080Z,18.19
2017-04-24T00:41:37.028Z,18.21
2017-04-24T00:41:57.192Z,18.27
2017-04-24T00:42:16.637Z,18.28
2017-04-24T00:42:36.621Z,18.18
2017-04-24T00:42:56.633Z,18.19
2017-04-24T00:43:16.685Z,18.24
2017-04-24T00:43:36.699Z,18.28
2017-04-24T00:43:56.681Z,18.29
2017-04-24T00:44:16.709Z,18.32
2017-04-24T00:44:36.648Z,18.28
2017-04-24T00:44:56.624Z,18.27
2017-04-24T00:45:16.024Z,18.31
2017-04-24T00:45:35.997Z,18.24
2017-04-24T00:45:55.438Z,18.32
2017-04-24T00:46:15.412Z,18.28
2017-04-24T00:46:35.398Z,18.32
2017-04-24T00:46:55.392Z,18.27
2017-04-24T00:47:14.849Z,18.32
2017-04-24T00:47:34.309Z,18.31
2017-04-24T00:47:54.322Z,18.34
2017-04-24T00:48:13.727Z,18.25
2017-04-24T00:48:33.791Z,18.37
2017-04-24T00:48:53.773Z,18.32
2017-04-24T00:49:13.745Z,18.27
2017-04-24T00:49:33.152Z,18.22
2017-04-24T00:49:53.094Z,18.24
2017-04-24T00:50:12.531Z,18.34
2017-04-24T00:50:31.417Z,18.39
2017-04-24T00:50:51.412Z,18.35
2017-04-24T00:51:10.806Z,18.27
2017-04-24T00:51:30.812Z,18.39
2017-04-24T00:51:50.789Z,18.32
2017-04-24T00:52:10.191Z,18.35
2017-04-24T00:52:30.208Z,18.24
2017-04-24T00:52:50.231Z,18.35
2017-04-24T00:53:09.648Z,18.24
2017-04-24T00:53:29.093Z,18.35
2017-04-24T00:53:49.091Z,18.28
2017-04-24T00:54:08.540Z,18.25
2017-04-24T00:54:28.541Z,18.24
2017-04-24T00:54:47.962Z,18.34
2017-04-24T00:55:07.902Z,18.34
2017-04-24T00:55:27.867Z,18.28
2017-04-24T00:55:47.835Z,18.22
2017-04-24T00:56:07.765Z,18.25
2017-04-24T00:56:27.169Z,18.29
2017-04-24T00:56:46.569Z,18.32
2017-04-24T00:57:06.550Z,18.28
2017-04-24T00:57:26.037Z,18.42
2017-04-24T00:57:46.007Z,18.32
2017-04-24T00:58:05.408Z,18.31
2017-04-24T00:58:25.377Z,18.25
2017-04-24T00:58:45.399Z,18.37
2017-04-24T00:59:05.427Z,18.25
2017-04-24T00:59:25.393Z,18.28
2017-04-24T00:59:45.375Z,18.28
2017-04-24T01:00:04.783Z,18.25
2017-04-24T01:00:24.180Z,18.31
2017-04-24T01:00:43.581Z,18.39
2017-04-24T01:01:03.008Z,18.37
2017-04-24T01:01:23.035Z,18.39
2017-04-24T01:01:42.456Z,18.35
2017-04-24T01:02:02.463Z,18.35
2017-04-24T01:02:22.433Z,18.37
2017-04-24T01:02:41.836Z,18.32
2017-04-24T01:03:01.805Z,18.32
2017-04-24T01:03:21.767Z,18.35
2017-04-24T01:03:41.734Z,18.34
2017-04-24T01:04:01.184Z,18.39
2017-04-24T01:04:21.199Z,18.39
2017-04-24T01:04:41.151Z,18.42
2017-04-24T01:05:01.125Z,18.31
2017-04-24T01:05:20.542Z,18.35
2017-04-24T01:05:40.544Z,18.32
2017-04-24T01:06:00.511Z,18.4
2017-04-24T01:06:19.915Z,18.37
2017-04-24T01:06:39.930Z,18.39
2017-04-24T01:06:59.921Z,18.35
2017-04-24T01:07:19.916Z,18.35
2017-04-24T01:07:39.300Z,18.35
2017-04-24T01:07:59.289Z,18.37
2017-04-24T01:08:19.264Z,18.42
2017-04-24T01:08:39.267Z,18.39
2017-04-24T01:08:59.220Z,18.43
2017-04-24T01:09:19.207Z,18.34
2017-04-24T01:09:38.632Z,18.32
2017-04-24T01:09:58.649Z,18.43
2017-04-24T01:10:18.068Z,18.34
2017-04-24T01:10:38.030Z,18.35
2017-04-24T01:10:57.994Z,18.4
2017-04-24T01:11:17.984Z,18.34
2017-04-24T01:11:37.965Z,18.44
2017-04-24T01:11:57.938Z,18.34
2017-04-24T01:12:17.343Z,18.47
2017-04-24T01:12:37.329Z,18.49
2017-04-24T01:12:56.779Z,18.43
2017-04-24T01:13:16.775Z,18.4
2017-04-24T01:13:36.763Z,18.43
2017-04-24T01:13:56.742Z,18.4
2017-04-24T01:14:16.692Z,18.37
2017-04-24T01:14:36.674Z,18.5
2017-04-24T01:14:56.667Z,18.46
2017-04-24T01:15:16.062Z,18.53
2017-04-24T01:15:36.068Z,18.44
2017-04-24T01:15:56.004Z,18.52
2017-04-24T01:16:15.977Z,18.52
2017-04-24T01:16:35.960Z,18.39
2017-04-24T01:16:55.331Z,18.37
2017-04-24T01:17:15.343Z,18.46
2017-04-24T01:17:35.376Z,18.53
2017-04-24T01:17:55.424Z,18.46
2017-04-24T01:18:15.408Z,18.55
2017-04-24T01:18:34.907Z,18.53
2017-04-24T01:18:54.979Z,18.46
2017-04-24T01:19:14.979Z,18.5
2017-04-24T01:19:34.954Z,18.53
2017-04-24T01:19:54.943Z,18.55
2017-04-24T01:20:14.363Z,18.49
2017-04-24T01:20:34.347Z,18.46
2017-04-24T01:20:54.326Z,18.42
2017-04-24T01:21:14.320Z,18.42
2017-04-24T01:21:34.285Z,18.47
2017-04-24T01:21:54.275Z,18.4
2017-04-24T01:22:14.259Z,18.42
2017-04-24T01:22:34.241Z,18.34
2017-04-24T01:22:54.371Z,18.43
2017-04-24T01:23:14.430Z,18.37
2017-04-24T01:23:34.441Z,18.32
2017-04-24T01:23:53.956Z,18.34
2017-04-24T01:24:13.401Z,18.42
2017-04-24T01:24:33.426Z,18.32
2017-04-24T01:24:53.375Z,18.34
2017-04-24T01:25:13.354Z,18.4
2017-04-24T01:25:32.764Z,18.4
2017-04-24T01:25:52.177Z,18.35
2017-04-24T01:26:12.150Z,18.37
2017-04-24T01:26:32.137Z,18.43
2017-04-24T01:26:52.124Z,18.43
2017-04-24T01:27:12.088Z,18.43
2017-04-24T01:27:31.493Z,18.5
2017-04-24T01:27:51.443Z,18.37
2017-04-24T01:28:11.393Z,18.44
2017-04-24T01:28:31.382Z,18.46
2017-04-24T01:28:50.785Z,18.42
2017-04-24T01:29:10.767Z,18.34
2017-04-24T01:29:30.758Z,18.39
2017-04-24T01:29:50.725Z,18.37
2017-04-24T01:30:09.036Z,18.31
2017-04-24T01:30:29.028Z,18.28
2017-04-24T01:30:49.072Z,18.37
2017-04-24T01:31:09.025Z,18.32
2017-04-24T01:31:29.005Z,18.35
2017-04-24T01:31:49.419Z,18.29
2017-04-24T01:32:09.400Z,18.24
2017-04-24T01:32:29.381Z,18.25
2017-04-24T01:32:49.341Z,18.28
2017-04-24T01:33:09.278Z,18.25
2017-04-24T01:33:29.339Z,18.31
2017-04-24T01:33:49.322Z,18.32
2017-04-24T01:34:09.338Z,18.28
2017-04-24T01:34:29.326Z,18.25
2017-04-24T01:34:49.283Z,18.25
2017-04-24T01:35:09.253Z,18.25
2017-04-24T01:35:29.240Z,18.32
2017-04-24T01:35:49.253Z,18.27
2017-04-24T01:36:08.655Z,18.29
2017-04-24T01:36:28.625Z,18.34
2017-04-24T01:36:48.570Z,18.24
2017-04-24T01:37:08.558Z,18.29
2017-04-24T01:37:28.514Z,18.29
2017-04-24T01:37:48.476Z,18.34
2017-04-24T01:38:08.430Z,18.32
2017-04-24T01:38:28.393Z,18.27
2017-04-24T01:38:47.822Z,18.34
2017-04-24T01:39:07.805Z,18.27
2017-04-24T01:39:26.661Z,18.27
2017-04-24T01:39:46.096Z,18.34
2017-04-24T01:40:06.097Z,18.25
2017-04-24T01:40:26.097Z,18.21
2017-04-24T01:40:45.506Z,18.21
2017-04-24T01:41:05.495Z,18.24
2017-04-24T01:41:25.526Z,18.24
2017-04-24T01:41:45.496Z,18.24
2017-04-24T01:42:04.913Z,18.22
2017-04-24T01:42:24.889Z,18.28
2017-04-24T01:42:44.846Z,18.25
2017-04-24T01:43:04.834Z,18.31
2017-04-24T01:43:24.275Z,18.34
2017-04-24T01:43:44.266Z,18.28
2017-04-24T01:44:04.244Z,18.27
2017-04-24T01:44:24.235Z,18.27
2017-04-24T01:44:44.221Z,18.34
2017-04-24T01:45:04.234Z,18.32
2017-04-24T01:45:23.643Z,18.27
2017-04-24T01:45:43.614Z,18.27
2017-04-24T01:46:03.595Z,18.24
2017-04-24T01:46:23.558Z,18.28
2017-04-24T01:46:43.521Z,18.21
2017-04-24T01:47:03.528Z,18.27
2017-04-24T01:47:23.520Z,18.31
2017-04-24T01:47:43.501Z,18.27
2017-04-24T01:48:03.513Z,18.32
2017-04-24T01:48:22.945Z,18.34
2017-04-24T01:48:42.941Z,18.4
2017-04-24T01:49:02.967Z,18.28
2017-04-24T01:49:22.953Z,18.37
2017-04-24T01:49:42.971Z,18.4
2017-04-24T01:50:02.970Z,18.35
2017-04-24T01:50:22.937Z,18.39
2017-04-24T01:50:42.395Z,18.34
2017-04-24T01:51:02.389Z,18.37
2017-04-24T01:51:21.773Z,18.39
2017-04-24T01:51:41.748Z,18.37
2017-04-24T01:52:01.768Z,18.4
2017-04-24T01:52:21.738Z,18.47
2017-04-24T01:52:41.717Z,18.42
2017-04-24T01:53:01.683Z,18.46
2017-04-24T01:53:21.696Z,18.42
2017-04-24T01:53:40.549Z,18.43
2017-04-24T01:54:00.010Z,18.39
2017-04-24T01:54:19.459Z,18.43
2017-04-24T01:54:39.436Z,18.4
2017-04-24T01:54:58.859Z,18.39
2017-04-24T01:55:18.318Z,18.35
2017-04-24T01:55:38.331Z,18.47
2017-04-24T01:55:58.818Z,18.34
2017-04-24T01:56:18.810Z,18.34
2017-04-24T01:56:39.145Z,18.37
2017-04-24T01:56:59.122Z,18.37
2017-04-24T01:57:18.540Z,18.39
2017-04-24T01:57:38.500Z,18.4
2017-04-24T01:57:58.463Z,18.4
2017-04-24T01:58:18.464Z,18.39
2017-04-24T01:58:38.483Z,18.37
2017-04-24T01:58:58.490Z,18.35
2017-04-24T01:59:18.475Z,18.35
2017-04-24T01:59:38.450Z,18.37
2017-04-24T01:59:58.418Z,18.35
2017-04-24T02:00:18.411Z,18.39
2017-04-24T02:00:37.810Z,18.47
2017-04-24T02:00:57.271Z,18.53
2017-04-24T02:01:17.273Z,18.44
2017-04-24T02:01:37.244Z,18.4
2017-04-24T02:01:57.200Z,18.46
2017-04-24T02:02:17.132Z,18.5
2017-04-24T02:02:37.128Z,18.44
2017-04-24T02:02:57.119Z,18.34
2017-04-24T02:03:17.080Z,18.43
2017-04-24T02:03:36.519Z,18.39
2017-04-24T02:03:56.498Z,18.37
2017-04-24T02:04:16.475Z,18.44
2017-04-24T02:04:36.451Z,18.34
2017-04-24T02:04:55.852Z,18.39
2017-04-24T02:05:15.276Z,18.37
2017-04-24T02:05:35.272Z,18.39
2017-04-24T02:05:55.255Z,18.35
2017-04-24T02:06:15.244Z,18.31
2017-04-24T02:06:35.212Z,18.31
2017-04-24T02:06:55.163Z,18.39
2017-04-24T02:07:15.210Z,18.34
2017-04-24T02:07:35.208Z,18.32
2017-04-24T02:07:55.204Z,18.29
2017-04-24T02:08:15.174Z,18.34
2017-04-24T02:08:34.568Z,18.37
2017-04-24T02:08:54.580Z,18.34
2017-04-24T02:09:14.011Z,18.29
2017-04-24T02:09:34.008Z,18.32
2017-04-24T02:09:53.965Z,18.27
2017-04-24T02:10:13.918Z,18.31
2017-04-24T02:10:33.888Z,18.28
2017-04-24T02:10:53.865Z,18.34
2017-04-24T02:11:13.880Z,18.28
2017-04-24T02:11:33.862Z,18.29
2017-04-24T02:11:53.265Z,18.25
2017-04-24T02:12:13.249Z,18.32
2017-04-24T02:12:32.720Z,18.21
2017-04-24T02:12:52.337Z,18.28
2017-04-24T02:13:12.385Z,18.19
2017-04-24T02:13:32.490Z,18.28
2017-04-24T02:13:51.873Z,18.25
2017-04-24T02:14:11.935Z,18.19
2017-04-24T02:14:31.390Z,18.29
2017-04-24T02:14:51.427Z,18.21
2017-04-24T02:15:10.904Z,18.29
2017-04-24T02:15:30.974Z,18.27
2017-04-24T02:15:50.952Z,18.19
2017-04-24T02:16:10.919Z,18.25
2017-04-24T02:16:30.949Z,18.24
2017-04-24T02:16:50.938Z,18.27
2017-04-24T02:17:10.888Z,18.24
2017-04-24T02:17:30.868Z,18.16
2017-04-24T02:17:50.275Z,18.24
2017-04-24T02:18:10.265Z,18.27
2017-04-24T02:18:30.341Z,18.19
2017-04-24T02:18:50.884Z,18.18
2017-04-24T02:19:10.330Z,18.14
2017-04-24T02:19:30.324Z,18.14
2017-04-24T02:19:49.744Z,18.18
2017-04-24T02:20:09.729Z,18.07
2017-04-24T02:20:29.702Z,18.11
2017-04-24T02:20:49.675Z,18.09
2017-04-24T02:21:09.087Z,18.16
2017-04-24T02:21:28.488Z,18.18
2017-04-24T02:21:48.470Z,18.13
2017-04-24T02:22:08.480Z,18.14
2017-04-24T02:22:28.133Z,18.09
2017-04-24T02:22:48.135Z,18.13
2017-04-24T02:23:08.131Z,18.14
2017-04-24T02:23:28.118Z,18.14
2017-04-24T02:23:47.515Z,18.14
2017-04-24T02:24:07.483Z,18.16
2017-04-24T02:24:27.421Z,18.11
2017-04-24T02:24:47.381Z,18.1
2017-04-24T02:25:07.352Z,18.14
2017-04-24T02:25:27.429Z,18.11
2017-04-24T02:25:47.415Z,18.18
2017-04-24T02:26:07.437Z,18.1
2017-04-24T02:26:26.905Z,18.07
2017-04-24T02:26:46.419Z,18.14
2017-04-24T02:27:06.538Z,18.06
2017-04-24T02:27:26.097Z,18.09
2017-04-24T02:27:46.102Z,18.11
2017-04-24T02:28:06.250Z,18.09
2017-04-24T02:28:25.691Z,18.1
2017-04-24T02:28:46.046Z,18.11
2017-04-24T02:29:06.062Z,18.07
2017-04-24T02:29:25.481Z,18.11
2017-04-24T02:29:45.582Z,18.09
2017-04-24T02:30:05.565Z,18.11
2017-04-24T02:30:24.998Z,18.07
2017-04-24T02:30:45.034Z,18.06
2017-04-24T02:31:05.036Z,18.14
2017-04-24T02:31:25.049Z,18.06
2017-04-24T02:31:44.996Z,18.1
2017-04-24T02:32:04.962Z,18.11
2017-04-24T02:32:24.974Z,18.1
2017-04-24T02:32:44.945Z,18.09
2017-04-24T02:33:04.945Z,18.06
2017-04-24T02:33:24.337Z,18.1
2017-04-24T02:33:43.782Z,18.04
2017-04-24T02:34:03.195Z,18.07
2017-04-24T02:34:23.217Z,18.06
2017-04-24T02:34:43.238Z,18.07
2017-04-24T02:35:03.235Z,18.13
2017-04-24T02:35:23.192Z,18.09
2017-04-24T02:35:43.180Z,18.09
2017-04-24T02:36:03.194Z,18.1
2017-04-24T02:36:23.153Z,18.11
2017-04-24T02:36:43.128Z,18.03
2017-04-24T02:37:03.154Z,18
2017-04-24T02:37:23.116Z,18.1
2017-04-24T02:37:43.192Z,17.96
2017-04-24T02:38:03.187Z,17.96
2017-04-24T02:38:23.136Z,17.98
2017-04-24T02:38:43.098Z,17.98
2017-04-24T02:39:03.093Z,17.96
2017-04-24T02:39:23.112Z,17.96
2017-04-24T02:39:42.520Z,17.88
2017-04-24T02:40:02.678Z,17.96
2017-04-24T02:40:22.094Z,17.94
2017-04-24T02:40:42.182Z,17.95
2017-04-24T02:41:01.582Z,17.96
2017-04-24T02:41:21.645Z,17.91
2017-04-24T02:41:41.620Z,17.92
2017-04-24T02:42:01.650Z,17.91
2017-04-24T02:42:21.752Z,17.92
2017-04-24T02:42:41.153Z,17.91
2017-04-24T02:43:01.117Z,17.85
2017-04-24T02:43:21.114Z,17.95
2017-04-24T02:43:40.532Z,17.95
2017-04-24T02:44:00.525Z,17.96
2017-04-24T02:44:19.375Z,17.95
2017-04-24T02:44:39.390Z,17.94
2017-04-24T02:44:59.401Z,17.95
2017-04-24T02:45:19.366Z,17.98
2017-04-24T02:45:39.327Z,17.92
2017-04-24T02:45:59.334Z,17.96
2017-04-24T02:46:19.351Z,17.96
2017-04-24T02:46:39.383Z,17.98
2017-04-24T02:46:59.495Z,17.98
2017-04-24T02:47:19.499Z,18.03
2017-04-24T02:47:39.487Z,18
2017-04-24T02:47:59.487Z,18.07
2017-04-24T02:48:19.497Z,18.04
2017-04-24T02:48:39.702Z,18
2017-04-24T02:48:59.704Z,18.04
2017-04-24T02:49:19.759Z,17.95
2017-04-24T02:49:39.715Z,17.95
2017-04-24T02:49:59.810Z,17.98
2017-04-24T02:50:19.311Z,17.96
2017-04-24T02:50:39.390Z,17.94
2017-04-24T02:50:59.369Z,17.94
2017-04-24T02:51:19.324Z,17.96
2017-04-24T02:51:39.567Z,17.95
2017-04-24T02:51:59.511Z,17.96
2017-04-24T02:52:19.466Z,18
2017-04-24T02:52:39.434Z,17.98
2017-04-24T02:52:59.398Z,17.94
2017-04-24T02:53:18.924Z,18.02
2017-04-24T02:53:38.931Z,17.98
2017-04-24T02:53:58.324Z,18.02
2017-04-24T02:54:18.356Z,18.02
2017-04-24T02:54:38.382Z,17.96
2017-04-24T02:54:58.484Z,18.07
2017-04-24T02:55:18.473Z,18.09
2017-04-24T02:55:38.481Z,18.1
2017-04-24T02:55:58.468Z,18.04
2017-04-24T02:56:17.899Z,17.96
2017-04-24T02:56:37.867Z,18.09
2017-04-24T02:56:57.837Z,18.1
2017-04-24T02:57:17.245Z,18.04
2017-04-24T02:57:37.286Z,18.07
2017-04-24T02:57:57.277Z,17.98
2017-04-24T02:58:16.747Z,17.95
2017-04-24T02:58:36.725Z,18
2017-04-24T02:58:56.766Z,18.09
2017-04-24T02:59:16.727Z,18.03
2017-04-24T02:59:36.840Z,18.1
2017-04-24T02:59:56.819Z,18.11
2017-04-24T03:00:16.807Z,18.11
2017-04-24T03:00:36.787Z,18.13
2017-04-24T03:00:56.759Z,17.96
2017-04-24T03:01:16.750Z,18.02
2017-04-24T03:01:36.745Z,17.98
2017-04-24T03:01:56.143Z,17.96
2017-04-24T03:02:16.141Z,17.92
2017-04-24T03:02:36.099Z,18
2017-04-24T03:02:56.086Z,17.94
2017-04-24T03:03:15.533Z,17.95
2017-04-24T03:03:35.507Z,17.91
2017-04-24T03:03:55.000Z,17.98
2017-04-24T03:04:15.085Z,17.98
2017-04-24T03:04:35.173Z,17.96
2017-04-24T03:04:55.157Z,18.07
2017-04-24T03:05:15.130Z,17.96
2017-04-24T03:05:35.083Z,17.96
2017-04-24T03:05:55.051Z,17.96
2017-04-24T03:06:15.131Z,17.98
2017-04-24T03:06:34.717Z,18.1
2017-04-24T03:06:54.127Z,18.09
2017-04-24T03:07:14.099Z,18.13
2017-04-24T03:07:32.988Z,18.06
2017-04-24T03:07:52.391Z,18.1
2017-04-24T03:08:11.831Z,18.11
2017-04-24T03:08:31.265Z,18.14
2017-04-24T03:08:51.228Z,18.11
2017-04-24T03:09:11.188Z,18.09
2017-04-24T03:09:31.239Z,18.07
2017-04-24T03:09:51.236Z,18.07
2017-04-24T03:10:10.683Z,18.13
2017-04-24T03:10:30.629Z,18.09
2017-04-24T03:10:50.596Z,18.07
2017-04-24T03:11:10.601Z,18.14
2017-04-24T03:11:30.590Z,18.14
2017-04-24T03:11:50.600Z,18.13
2017-04-24T03:12:09.994Z,18.19
2017-04-24T03:12:29.414Z,18.16
2017-04-24T03:12:49.372Z,18.14
2017-04-24T03:13:09.362Z,18.16
2017-04-24T03:13:29.355Z,18.14
2017-04-24T03:13:48.784Z,18.06
2017-04-24T03:14:08.752Z,18.1
2017-04-24T03:14:27.626Z,18.11
2017-04-24T03:14:47.061Z,18.14
2017-04-24T03:15:07.070Z,18.1
2017-04-24T03:15:27.076Z,18.03
2017-04-24T03:15:47.040Z,18.11
2017-04-24T03:16:20.845Z,18.1
2017-04-24T03:16:40.821Z,18.21
2017-04-24T03:17:00.803Z,18.14
2017-04-24T03:17:20.795Z,18.1
2017-04-24T03:17:40.770Z,18.11
2017-04-24T03:18:00.751Z,18.13
2017-04-24T03:18:20.719Z,18.18
2017-04-24T03:18:40.687Z,18.21
2017-04-24T03:19:00.106Z,18.19
2017-04-24T03:19:20.075Z,18.1
2017-04-24T03:19:40.072Z,18.13
2017-04-24T03:20:00.059Z,18.1
2017-04-24T03:20:18.887Z,18.16
2017-04-24T03:20:38.837Z,18.11
2017-04-24T03:20:58.840Z,18.14
2017-04-24T03:21:18.847Z,18.16
2017-04-24T03:21:38.257Z,18.14
2017-04-24T03:21:58.248Z,18.14
2017-04-24T03:22:18.235Z,18.16
2017-04-24T03:22:38.233Z,18.06
2017-04-24T03:22:57.670Z,18.07
2017-04-24T03:23:17.609Z,18.07
2017-04-24T03:23:37.608Z,18.13
2017-04-24T03:23:57.629Z,18.07
2017-04-24T03:24:17.634Z,18.09
2017-04-24T03:24:37.640Z,18.06
2017-04-24T03:24:57.626Z,18.11
2017-04-24T03:25:17.084Z,18.13
2017-04-24T03:25:36.493Z,18.11
2017-04-24T03:25:56.491Z,18.04
2017-04-24T03:26:17.414Z,18.07
2017-04-24T03:26:36.815Z,18.09
2017-04-24T03:26:56.790Z,18.03
2017-04-24T03:27:16.764Z,18.09
2017-04-24T03:27:36.776Z,18.02
2017-04-24T03:27:56.748Z,17.98
2017-04-24T03:28:16.715Z,18.04
2017-04-24T03:28:36.662Z,17.95
2017-04-24T03:28:56.080Z,17.95
2017-04-24T03:29:15.503Z,18.11
2017-04-24T03:29:35.477Z,18
2017-04-24T03:29:55.468Z,18.04
2017-04-24T03:30:14.888Z,18.02
2017-04-24T03:30:34.854Z,18.11
2017-04-24T03:30:54.842Z,18.07
2017-04-24T03:31:14.809Z,18.11
2017-04-24T03:31:34.780Z,18.09
2017-04-24T03:31:54.763Z,18.1
2017-04-24T03:32:14.213Z,18.06
2017-04-24T03:32:33.656Z,18.1
2017-04-24T03:32:53.607Z,18.11
2017-04-24T03:33:13.599Z,18.02
2017-04-24T03:33:33.574Z,18.09
2017-04-24T03:33:53.550Z,18.1
2017-04-24T03:34:13.562Z,18.04
2017-04-24T03:34:33.563Z,18.04
2017-04-24T03:34:53.585Z,18.07
2017-04-24T03:35:13.589Z,18.1
2017-04-24T03:35:33.552Z,18.09
2017-04-24T03:35:53.515Z,18.09
2017-04-24T03:36:13.509Z,18.11
2017-04-24T03:36:32.905Z,18.09
2017-04-24T03:36:52.934Z,18.09
2017-04-24T03:37:12.344Z,18.11
2017-04-24T03:37:32.314Z,18.14
2017-04-24T03:37:52.292Z,18.11
2017-04-24T03:38:13.483Z,18.13
2017-04-24T03:38:35.745Z,18.09
2017-04-24T03:38:55.739Z,18.06
2017-04-24T03:39:15.708Z,18.07
2017-04-24T03:39:35.114Z,18.1
2017-04-24T03:39:55.078Z,18.07
2017-04-24T03:40:15.083Z,18.11
2017-04-24T03:40:35.038Z,18.1
2017-04-24T03:40:55.034Z,18.11
2017-04-24T03:41:14.709Z,18.11
2017-04-24T03:41:34.694Z,18.06
2017-04-24T03:41:54.642Z,18.16
2017-04-24T03:42:14.042Z,18.13
2017-04-24T03:42:33.480Z,18.14
2017-04-24T03:42:52.901Z,18.1
2017-04-24T03:43:12.306Z,18.18
2017-04-24T03:43:32.291Z,18.14
2017-04-24T03:43:52.273Z,18.21
2017-04-24T03:44:12.287Z,18.16
2017-04-24T03:44:32.275Z,18.18
2017-04-24T03:44:52.265Z,18.13
2017-04-24T03:45:11.679Z,18.11
2017-04-24T03:45:31.091Z,18.13
2017-04-24T03:45:51.087Z,18.09
2017-04-24T03:46:10.498Z,18.09
2017-04-24T03:46:30.476Z,18.1
2017-04-24T03:46:50.466Z,18.16
2017-04-24T03:47:09.881Z,18.16
2017-04-24T03:47:29.891Z,18.14
2017-04-24T03:47:49.889Z,18.11
2017-04-24T03:48:09.875Z,18.1
2017-04-24T03:48:29.890Z,18.1
2017-04-24T03:48:49.865Z,18.07
2017-04-24T03:49:09.899Z,18.09
2017-04-24T03:49:29.868Z,18.13
2017-04-24T03:49:49.815Z,18.04
2017-04-24T03:50:09.253Z,18.03
2017-04-24T03:50:28.677Z,18.1
2017-04-24T03:50:48.603Z,18.16
2017-04-24T03:51:08.539Z,18.11
2017-04-24T03:51:28.496Z,18.1
2017-04-24T03:51:48.458Z,18.11
2017-04-24T03:52:08.415Z,18.14
2017-04-24T03:52:27.883Z,18.14
2017-04-24T03:52:47.859Z,18.16
2017-04-24T03:53:07.836Z,18.22
2017-04-24T03:53:27.800Z,18.22
2017-04-24T03:53:47.198Z,18.13
2017-04-24T03:54:07.175Z,18.11
2017-04-24T03:54:27.147Z,18.04
2017-04-24T03:54:46.557Z,18.14
2017-04-24T03:55:06.492Z,18.11
2017-04-24T03:55:26.504Z,18.11
2017-04-24T03:55:46.486Z,18.11
2017-04-24T03:56:06.434Z,18.09
2017-04-24T03:56:26.439Z,18.07
2017-04-24T03:56:46.417Z,18.16
2017-04-24T03:57:05.846Z,18.09
2017-04-24T03:57:25.307Z,18.04
2017-04-24T03:57:44.763Z,18.09
2017-04-24T03:58:04.744Z,18.09
2017-04-24T03:58:24.156Z,18.1
2017-04-24T03:58:44.179Z,18.11
2017-04-24T03:59:04.214Z,18.06
2017-04-24T03:59:24.178Z,18.06
2017-04-24T03:59:44.155Z,18.13
2017-04-24T04:00:04.146Z,18.09
2017-04-24T04:00:24.085Z,18.13
2017-04-24T04:00:44.067Z,18.06
2017-04-24T04:01:03.454Z,18.14
2017-04-24T04:01:23.445Z,18.14
2017-04-24T04:01:42.875Z,18.16
2017-04-24T04:02:02.864Z,18.1
2017-04-24T04:02:22.853Z,18.13
2017-04-24T04:02:42.839Z,18.18
2017-04-24T04:03:02.833Z,18.16
2017-04-24T04:03:22.818Z,18.22
2017-04-24T04:03:42.787Z,18.19
2017-04-24T04:04:02.748Z,18.25
2017-04-24T04:04:22.732Z,18.27
2017-04-24T04:04:42.706Z,18.32
2017-04-24T04:05:02.683Z,18.25
2017-04-24T04:05:22.082Z,18.31
2017-04-24T04:05:42.039Z,18.24
2017-04-24T04:06:02.036Z,18.24
2017-04-24T04:06:22.052Z,18.1
2017-04-24T04:06:42.069Z,18.18
2017-04-24T04:07:02.045Z,18.1
2017-04-24T04:07:22.011Z,18.07
2017-04-24T04:07:41.983Z,18.18
2017-04-24T04:08:01.951Z,18.14
2017-04-24T04:08:21.941Z,18.14
2017-04-24T04:08:41.901Z,18.07
2017-04-24T04:09:01.830Z,18
2017-04-24T04:09:21.834Z,17.96
2017-04-24T04:09:41.836Z,17.96
2017-04-24T04:10:01.823Z,17.95
2017-04-24T04:10:21.787Z,17.94
2017-04-24T04:10:41.770Z,17.94
2017-04-24T04:11:01.752Z,17.98
2017-04-24T04:11:21.184Z,17.95
2017-04-24T04:11:41.193Z,18.02
2017-04-24T04:12:01.238Z,17.98
2017-04-24T04:12:21.188Z,17.88
2017-04-24T04:12:41.137Z,17.87
2017-04-24T04:13:01.131Z,17.98
2017-04-24T04:13:21.090Z,17.98
2017-04-24T04:13:41.061Z,17.88
2017-04-24T04:14:00.494Z,17.92
2017-04-24T04:14:20.496Z,17.95
2017-04-24T04:14:40.479Z,17.88
2017-04-24T04:14:59.900Z,17.87
2017-04-24T04:15:19.869Z,17.87
2017-04-24T04:15:39.847Z,17.85
2017-04-24T04:15:59.858Z,17.81
2017-04-24T04:16:19.286Z,17.85
2017-04-24T04:16:38.688Z,17.69
2017-04-24T04:16:58.664Z,17.77